createdAt,value
2019-03-29T00:00:58.930Z,11.93
2019-03-29T00:01:58.690Z,11.96
2019-03-29T00:02:58.681Z,11.93
2019-03-29T00:03:58.831Z,11.93
2019-03-29T00:04:58.662Z,11.95
2019-03-29T00:05:58.648Z,11.97
2019-03-29T00:06:58.636Z,11.93
2019-03-29T00:07:58.626Z,12.00
2019-03-29T00:08:58.635Z,11.91
2019-03-29T00:09:58.598Z,12.04
2019-03-29T00:10:58.596Z,11.96
2019-03-29T00:11:58.574Z,11.91
2019-03-29T00:12:58.565Z,11.88
2019-03-29T00:13:58.649Z,11.93
2019-03-29T00:14:58.551Z,11.84
2019-03-29T00:15:59.918Z,11.87
2019-03-29T00:16:58.519Z,11.82
2019-03-29T00:17:58.517Z,11.89
2019-03-29T00:18:58.527Z,11.82
2019-03-29T00:19:58.512Z,11.88
2019-03-29T00:20:58.472Z,11.99
2019-03-29T00:21:58.472Z,11.89
2019-03-29T00:22:58.459Z,11.84
2019-03-29T00:24:06.639Z,11.73
2019-03-29T00:24:59.454Z,11.84
2019-03-29T00:25:59.110Z,11.85
2019-03-29T00:26:58.416Z,11.82
2019-03-29T00:27:58.393Z,11.79
2019-03-29T00:28:58.400Z,11.87
2019-03-29T00:29:58.409Z,11.79
2019-03-29T00:30:58.363Z,11.79
2019-03-29T00:31:58.354Z,11.71
2019-03-29T00:32:58.337Z,11.84
2019-03-29T00:33:58.343Z,11.74
2019-03-29T00:34:58.350Z,11.71
2019-03-29T00:35:58.309Z,11.79
2019-03-29T00:36:58.294Z,11.73
2019-03-29T00:37:58.281Z,11.62
2019-03-29T00:38:58.285Z,11.80
2019-03-29T00:39:58.301Z,11.70
2019-03-29T00:40:58.323Z,11.77
2019-03-29T00:41:58.243Z,11.74
2019-03-29T00:42:58.236Z,11.62
2019-03-29T00:43:58.215Z,11.59
2019-03-29T00:44:58.204Z,11.71
2019-03-29T00:45:58.233Z,11.62
2019-03-29T00:46:58.184Z,11.59
2019-03-29T00:47:58.178Z,11.55
2019-03-29T00:48:58.170Z,11.49
2019-03-29T00:49:58.151Z,11.55
2019-03-29T00:50:58.952Z,11.52
2019-03-29T00:51:58.130Z,11.48
2019-03-29T00:52:58.125Z,11.48
2019-03-29T00:53:58.111Z,11.34
2019-03-29T00:54:58.095Z,11.45
2019-03-29T00:55:58.111Z,11.52
2019-03-29T00:56:58.077Z,11.48
2019-03-29T00:57:58.080Z,11.52
2019-03-29T00:58:58.060Z,11.48
2019-03-29T00:59:58.041Z,11.41
2019-03-29T01:00:58.074Z,11.45
2019-03-29T01:01:58.024Z,11.37
2019-03-29T01:02:58.010Z,11.36
2019-03-29T01:03:57.999Z,11.33
2019-03-29T01:04:57.987Z,11.28
2019-03-29T01:05:58.012Z,11.20
2019-03-29T01:06:57.997Z,11.22
2019-03-29T01:08:07.879Z,11.13
2019-03-29T01:08:58.945Z,11.19
2019-03-29T01:09:57.940Z,11.18
2019-03-29T01:10:57.924Z,11.11
2019-03-29T01:11:57.937Z,11.08
2019-03-29T01:12:58.310Z,11.05
2019-03-29T01:13:57.882Z,11.11
2019-03-29T01:14:57.872Z,11.13
2019-03-29T01:15:57.860Z,11.19
2019-03-29T01:16:57.890Z,11.04
2019-03-29T01:17:57.841Z,11.05
2019-03-29T01:18:57.841Z,11.01
2019-03-29T01:19:57.822Z,10.90
2019-03-29T01:20:57.805Z,10.94
2019-03-29T01:21:57.883Z,10.87
2019-03-29T01:22:57.995Z,10.85
2019-03-29T01:23:57.775Z,10.90
2019-03-29T01:24:57.767Z,10.83
2019-03-29T01:25:57.759Z,10.70
2019-03-29T01:26:57.740Z,10.79
2019-03-29T01:27:57.762Z,10.86
2019-03-29T01:28:57.723Z,10.79
2019-03-29T01:29:57.715Z,10.62
2019-03-29T01:30:57.696Z,10.78
2019-03-29T01:31:57.711Z,10.70
2019-03-29T01:32:58.916Z,10.78
2019-03-29T01:33:57.670Z,10.79
2019-03-29T01:34:57.661Z,10.78
2019-03-29T01:35:57.649Z,10.70
2019-03-29T01:36:57.631Z,10.75
2019-03-29T01:37:57.644Z,10.73
2019-03-29T01:38:57.608Z,10.78
2019-03-29T01:39:57.599Z,10.73
2019-03-29T01:40:57.594Z,10.72
2019-03-29T01:41:57.577Z,10.76
2019-03-29T01:42:57.590Z,10.68
2019-03-29T01:43:57.553Z,10.75
2019-03-29T01:44:57.546Z,10.76
2019-03-29T01:45:57.532Z,10.57
2019-03-29T01:46:57.526Z,10.67
2019-03-29T01:47:57.537Z,10.64
2019-03-29T01:48:57.499Z,10.68
2019-03-29T01:49:57.499Z,10.60
2019-03-29T01:50:57.486Z,10.68
2019-03-29T01:51:57.465Z,10.67
2019-03-29T01:52:57.476Z,10.60
2019-03-29T01:53:57.452Z,10.54
2019-03-29T01:54:57.433Z,10.57
2019-03-29T01:55:57.420Z,10.43
2019-03-29T01:56:57.412Z,10.48
2019-03-29T01:57:58.315Z,10.58
2019-03-29T01:58:57.392Z,10.43
2019-03-29T01:59:57.390Z,10.52
2019-03-29T02:00:57.371Z,10.43
2019-03-29T02:01:57.358Z,10.41
2019-03-29T02:02:57.368Z,10.26
2019-03-29T02:03:57.483Z,10.36
2019-03-29T02:04:57.327Z,10.45
2019-03-29T02:05:57.316Z,10.38
2019-03-29T02:06:57.305Z,10.36
2019-03-29T02:07:57.317Z,10.35
2019-03-29T02:08:57.300Z,10.38
2019-03-29T02:09:57.307Z,10.26
2019-03-29T02:10:57.263Z,10.24
2019-03-29T02:11:57.249Z,10.30
2019-03-29T02:12:57.284Z,10.17
2019-03-29T02:13:57.257Z,10.23
2019-03-29T02:14:57.211Z,10.23
2019-03-29T02:15:57.204Z,10.16
2019-03-29T02:16:57.192Z,10.10
2019-03-29T02:17:57.183Z,10.27
2019-03-29T02:18:57.282Z,10.23
2019-03-29T02:19:58.033Z,10.34
2019-03-29T02:20:57.144Z,10.16
2019-03-29T02:21:57.140Z,10.20
2019-03-29T02:22:57.129Z,10.18
2019-03-29T02:23:57.331Z,10.21
2019-03-29T02:24:57.099Z,10.20
2019-03-29T02:25:57.096Z,10.23
2019-03-29T02:26:57.083Z,10.27
2019-03-29T02:27:57.076Z,10.23
2019-03-29T02:28:57.174Z,10.06
2019-03-29T02:29:57.045Z,10.17
2019-03-29T02:30:57.041Z,10.17
2019-03-29T02:31:57.187Z,10.02
2019-03-29T02:32:57.014Z,10.06
2019-03-29T02:33:57.043Z,10.09
2019-03-29T02:34:57.038Z,10.09
2019-03-29T02:35:56.988Z,10.06
2019-03-29T02:36:56.972Z,10.02
2019-03-29T02:37:57.068Z,10.16
2019-03-29T02:38:58.990Z,10.17
2019-03-29T02:39:56.978Z,10.05
2019-03-29T02:40:56.929Z,10.05
2019-03-29T02:41:56.920Z,10.05
2019-03-29T02:42:56.918Z,9.96
2019-03-29T02:43:56.894Z,9.93
2019-03-29T02:44:56.907Z,10.01
2019-03-29T02:45:57.839Z,10.05
2019-03-29T02:46:56.875Z,9.94
2019-03-29T02:47:56.849Z,10.10
2019-03-29T02:48:56.835Z,9.96
2019-03-29T02:49:56.855Z,9.94
2019-03-29T02:50:56.817Z,9.90
2019-03-29T02:51:56.832Z,10.05
2019-03-29T02:52:56.799Z,9.88
2019-03-29T02:53:56.780Z,10.08
2019-03-29T02:54:56.800Z,9.98
2019-03-29T02:55:56.760Z,9.96
2019-03-29T02:56:56.745Z,9.91
2019-03-29T02:57:56.745Z,9.96
2019-03-29T02:58:56.729Z,9.99
2019-03-29T02:59:56.756Z,9.99
2019-03-29T03:00:56.706Z,9.96
2019-03-29T03:01:56.698Z,10.01
2019-03-29T03:02:56.687Z,9.98
2019-03-29T03:03:56.668Z,9.93
2019-03-29T03:04:56.657Z,9.93
2019-03-29T03:05:56.667Z,9.96
2019-03-29T03:06:56.635Z,9.87
2019-03-29T03:07:56.637Z,9.88
2019-03-29T03:09:12.320Z,9.87
2019-03-29T03:09:57.600Z,9.94
2019-03-29T03:10:56.621Z,9.90
2019-03-29T03:11:56.578Z,9.78
2019-03-29T03:12:56.568Z,9.85
2019-03-29T03:13:56.563Z,9.77
2019-03-29T03:14:56.551Z,9.83
2019-03-29T03:15:56.563Z,9.83
2019-03-29T03:16:56.524Z,9.67
2019-03-29T03:17:56.523Z,9.80
2019-03-29T03:18:56.506Z,9.69
2019-03-29T03:19:56.497Z,9.70
2019-03-29T03:20:56.520Z,9.69
2019-03-29T03:21:56.467Z,9.72
2019-03-29T03:22:56.454Z,9.70
2019-03-29T03:23:56.445Z,9.54
2019-03-29T03:24:56.442Z,9.57
2019-03-29T03:25:56.449Z,9.60
2019-03-29T03:26:56.432Z,9.60
2019-03-29T03:27:56.409Z,9.59
2019-03-29T03:28:56.393Z,9.67
2019-03-29T03:29:56.381Z,9.70
2019-03-29T03:30:56.411Z,9.62
2019-03-29T03:31:56.370Z,9.69
2019-03-29T03:32:56.344Z,9.62
2019-03-29T03:33:56.333Z,9.55
2019-03-29T03:34:56.321Z,9.48
2019-03-29T03:35:56.334Z,9.54
2019-03-29T03:36:56.305Z,9.50
2019-03-29T03:37:56.287Z,9.66
2019-03-29T03:38:56.277Z,9.57
2019-03-29T03:39:56.266Z,9.59
2019-03-29T03:40:56.288Z,9.52
2019-03-29T03:41:56.244Z,9.44
2019-03-29T03:42:56.241Z,9.57
2019-03-29T03:43:56.227Z,9.54
2019-03-29T03:44:56.213Z,9.55
2019-03-29T03:45:56.221Z,9.51
2019-03-29T03:46:56.193Z,9.50
2019-03-29T03:47:56.174Z,9.51
2019-03-29T03:48:56.185Z,9.42
2019-03-29T03:50:00.484Z,9.48
2019-03-29T03:50:56.202Z,9.54
2019-03-29T03:51:56.135Z,9.45
2019-03-29T03:52:56.123Z,9.48
2019-03-29T03:53:56.116Z,9.41
2019-03-29T03:54:56.096Z,9.54
2019-03-29T03:55:56.086Z,9.42
2019-03-29T03:56:56.098Z,9.41
2019-03-29T03:57:57.949Z,9.42
2019-03-29T03:58:56.056Z,9.48
2019-03-29T03:59:56.044Z,9.41
2019-03-29T04:00:56.068Z,9.48
2019-03-29T04:01:56.044Z,9.32
2019-03-29T04:02:56.017Z,9.44
2019-03-29T04:03:56.001Z,9.42
2019-03-29T04:04:55.984Z,9.34
2019-03-29T04:05:55.997Z,9.34
2019-03-29T04:06:55.996Z,9.32
2019-03-29T04:07:55.966Z,9.27
2019-03-29T04:08:55.943Z,9.26
2019-03-29T04:09:55.957Z,9.22
2019-03-29T04:10:55.933Z,9.15
2019-03-29T04:11:56.080Z,9.16
2019-03-29T04:12:55.899Z,9.14
2019-03-29T04:13:55.889Z,9.26
2019-03-29T04:14:55.875Z,9.22
2019-03-29T04:15:55.863Z,9.01
2019-03-29T04:16:55.877Z,9.16
2019-03-29T04:17:55.879Z,9.11
2019-03-29T04:18:55.839Z,9.12
2019-03-29T04:19:55.819Z,9.12
2019-03-29T04:20:55.945Z,9.11
2019-03-29T04:21:55.796Z,8.98
2019-03-29T04:22:55.837Z,9.09
2019-03-29T04:23:55.780Z,8.99
2019-03-29T04:24:55.765Z,9.06
2019-03-29T04:25:55.774Z,8.88
2019-03-29T04:26:55.754Z,8.99
2019-03-29T04:27:55.772Z,8.93
2019-03-29T04:29:04.418Z,8.96
2019-03-29T04:29:56.704Z,8.98
2019-03-29T04:30:55.698Z,8.93
2019-03-29T04:31:55.689Z,8.99
2019-03-29T04:32:55.703Z,8.92
2019-03-29T04:33:55.664Z,8.85
2019-03-29T04:34:55.649Z,8.99
2019-03-29T04:35:55.639Z,8.99
2019-03-29T04:36:55.642Z,8.96
2019-03-29T04:37:55.639Z,8.83
2019-03-29T04:38:55.615Z,8.95
2019-03-29T04:40:07.127Z,8.89
2019-03-29T04:40:56.594Z,8.90
2019-03-29T04:41:55.575Z,8.96
2019-03-29T04:42:55.586Z,8.85
2019-03-29T04:43:55.554Z,8.80
2019-03-29T04:44:59.377Z,8.90
2019-03-29T04:45:55.548Z,8.89
2019-03-29T04:46:55.515Z,8.88
2019-03-29T04:47:55.537Z,8.78
2019-03-29T04:48:55.493Z,8.92
2019-03-29T04:49:55.491Z,8.74
2019-03-29T04:50:55.475Z,8.81
2019-03-29T04:51:55.462Z,8.85
2019-03-29T04:52:55.482Z,8.80
2019-03-29T04:53:55.468Z,8.83
2019-03-29T04:54:55.434Z,8.83
2019-03-29T04:55:55.418Z,8.85
2019-03-29T04:56:55.415Z,8.81
2019-03-29T04:57:55.392Z,8.88
2019-03-29T04:58:55.405Z,8.80
2019-03-29T04:59:55.384Z,8.83
2019-03-29T05:00:55.361Z,8.83
2019-03-29T05:01:55.351Z,8.81
2019-03-29T05:02:55.347Z,8.72
2019-03-29T05:03:55.367Z,8.74
2019-03-29T05:04:55.344Z,8.81
2019-03-29T05:05:55.307Z,8.80
2019-03-29T05:06:55.295Z,8.74
2019-03-29T05:07:55.285Z,8.72
2019-03-29T05:08:55.277Z,8.78
2019-03-29T05:09:55.267Z,8.78
2019-03-29T05:10:55.278Z,8.77
2019-03-29T05:11:55.237Z,8.77
2019-03-29T05:12:55.225Z,8.85
2019-03-29T05:13:55.260Z,8.75
2019-03-29T05:14:55.227Z,8.72
2019-03-29T05:15:55.192Z,8.77
2019-03-29T05:16:55.192Z,8.75
2019-03-29T05:17:55.171Z,8.65
2019-03-29T05:18:55.163Z,8.70
2019-03-29T05:19:55.179Z,8.80
2019-03-29T05:20:55.165Z,8.83
2019-03-29T05:21:55.133Z,8.70
2019-03-29T05:22:55.118Z,8.75
2019-03-29T05:23:55.114Z,8.72
2019-03-29T05:24:55.091Z,8.85
2019-03-29T05:25:55.109Z,8.60
2019-03-29T05:26:55.073Z,8.68
2019-03-29T05:27:55.064Z,8.81
2019-03-29T05:28:55.053Z,8.77
2019-03-29T05:29:55.040Z,8.77
2019-03-29T05:30:55.075Z,8.74
2019-03-29T05:31:55.015Z,8.68
2019-03-29T05:32:55.023Z,8.78
2019-03-29T05:33:54.992Z,8.80
2019-03-29T05:34:54.982Z,8.78
2019-03-29T05:35:55.000Z,8.72
2019-03-29T05:36:58.217Z,8.85
2019-03-29T05:37:54.948Z,8.78
2019-03-29T05:38:54.943Z,8.68
2019-03-29T05:39:54.924Z,8.67
2019-03-29T05:40:54.915Z,8.62
2019-03-29T05:41:54.926Z,8.72
2019-03-29T05:42:54.893Z,8.72
2019-03-29T05:43:54.880Z,8.78
2019-03-29T05:44:54.885Z,8.77
2019-03-29T05:45:54.891Z,8.70
2019-03-29T05:46:54.880Z,8.65
2019-03-29T05:47:54.839Z,8.74
2019-03-29T05:48:54.824Z,8.72
2019-03-29T05:49:54.813Z,8.71
2019-03-29T05:50:54.802Z,8.70
2019-03-29T05:51:54.820Z,8.63
2019-03-29T05:52:54.782Z,8.71
2019-03-29T05:53:54.774Z,8.56
2019-03-29T05:54:54.764Z,8.68
2019-03-29T05:55:54.750Z,8.68
2019-03-29T05:56:54.762Z,8.65
2019-03-29T05:57:54.731Z,8.72
2019-03-29T05:58:54.714Z,8.75
2019-03-29T05:59:54.704Z,8.71
2019-03-29T06:00:54.700Z,8.63
2019-03-29T06:01:54.722Z,8.67
2019-03-29T06:02:54.681Z,8.65
2019-03-29T06:03:54.662Z,8.68
2019-03-29T06:04:54.649Z,8.59
2019-03-29T06:05:54.635Z,8.56
2019-03-29T06:06:54.663Z,8.62
2019-03-29T06:07:54.614Z,8.65
2019-03-29T06:08:54.603Z,8.59
2019-03-29T06:09:54.592Z,8.67
2019-03-29T06:10:54.581Z,8.72
2019-03-29T06:11:54.578Z,8.74
2019-03-29T06:12:54.595Z,8.74
2019-03-29T06:13:54.558Z,8.77
2019-03-29T06:14:54.535Z,8.71
2019-03-29T06:15:54.525Z,8.75
2019-03-29T06:16:54.519Z,8.80
2019-03-29T06:17:54.573Z,8.83
2019-03-29T06:18:54.498Z,8.72
2019-03-29T06:19:54.486Z,8.71
2019-03-29T06:20:54.468Z,8.77
2019-03-29T06:21:54.462Z,8.80
2019-03-29T06:22:54.469Z,8.88
2019-03-29T06:23:54.436Z,8.89
2019-03-29T06:24:54.428Z,8.90
2019-03-29T06:25:54.420Z,8.81
2019-03-29T06:26:54.411Z,8.80
2019-03-29T06:27:54.419Z,8.90
2019-03-29T06:28:54.383Z,8.88
2019-03-29T06:29:54.368Z,8.93
2019-03-29T06:30:54.358Z,8.96
2019-03-29T06:31:54.348Z,8.89
2019-03-29T06:32:54.387Z,8.86
2019-03-29T06:33:54.330Z,8.88
2019-03-29T06:34:54.314Z,8.92
2019-03-29T06:35:54.306Z,9.01
2019-03-29T06:36:54.291Z,8.95
2019-03-29T06:37:54.313Z,9.01
2019-03-29T06:38:54.307Z,8.89
2019-03-29T06:39:54.260Z,8.95
2019-03-29T06:41:02.938Z,9.08
2019-03-29T06:41:55.244Z,9.06
2019-03-29T06:42:54.260Z,9.08
2019-03-29T06:43:54.213Z,9.01
2019-03-29T06:44:54.226Z,9.19
2019-03-29T06:45:54.192Z,9.14
2019-03-29T06:46:54.186Z,9.03
2019-03-29T06:47:54.182Z,9.11
2019-03-29T06:48:54.186Z,9.18
2019-03-29T06:49:54.155Z,9.11
2019-03-29T06:50:54.148Z,9.27
2019-03-29T06:51:54.127Z,9.23
2019-03-29T06:52:54.114Z,9.24
2019-03-29T06:53:54.164Z,9.32
2019-03-29T06:54:54.090Z,9.29
2019-03-29T06:55:54.093Z,9.36
2019-03-29T06:56:54.066Z,9.34
2019-03-29T06:57:54.060Z,9.40
2019-03-29T06:58:54.087Z,9.42
2019-03-29T06:59:54.034Z,9.42
2019-03-29T07:00:54.025Z,9.48
2019-03-29T07:01:54.016Z,9.45
2019-03-29T07:02:54.027Z,9.50
2019-03-29T07:03:54.011Z,9.42
2019-03-29T07:04:53.992Z,9.47
2019-03-29T07:05:53.981Z,9.52
2019-03-29T07:06:53.968Z,9.47
2019-03-29T07:07:53.954Z,9.51
2019-03-29T07:08:53.983Z,9.50
2019-03-29T07:09:53.935Z,9.59
2019-03-29T07:10:53.915Z,9.55
2019-03-29T07:11:53.904Z,9.63
2019-03-29T07:12:56.461Z,9.60
2019-03-29T07:13:57.734Z,9.65
2019-03-29T07:14:53.867Z,9.59
2019-03-29T07:15:53.854Z,9.73
2019-03-29T07:16:53.848Z,9.67
2019-03-29T07:17:53.839Z,9.70
2019-03-29T07:18:53.900Z,9.72
2019-03-29T07:19:53.816Z,9.88
2019-03-29T07:20:53.876Z,9.84
2019-03-29T07:21:53.796Z,9.91
2019-03-29T07:22:53.788Z,9.81
2019-03-29T07:23:53.765Z,9.85
2019-03-29T07:24:53.788Z,9.84
2019-03-29T07:25:56.327Z,9.91
2019-03-29T07:26:53.732Z,9.84
2019-03-29T07:27:53.736Z,9.88
2019-03-29T07:28:53.714Z,9.96
2019-03-29T07:29:53.720Z,10.05
2019-03-29T07:30:53.695Z,9.99
2019-03-29T07:31:53.678Z,10.01
2019-03-29T07:32:53.675Z,10.09
2019-03-29T07:33:53.657Z,10.06
2019-03-29T07:34:53.768Z,10.12
2019-03-29T07:35:53.644Z,10.18
2019-03-29T07:36:53.627Z,10.20
2019-03-29T07:37:53.614Z,10.10
2019-03-29T07:38:53.599Z,10.17
2019-03-29T07:39:54.042Z,10.24
2019-03-29T07:40:53.581Z,10.21
2019-03-29T07:41:53.573Z,10.23
2019-03-29T07:42:53.558Z,10.34
2019-03-29T07:43:53.543Z,10.34
2019-03-29T07:44:53.571Z,10.31
2019-03-29T07:45:53.553Z,10.34
2019-03-29T07:46:53.526Z,10.45
2019-03-29T07:47:53.503Z,10.43
2019-03-29T07:48:53.491Z,10.45
2019-03-29T07:49:53.479Z,10.39
2019-03-29T07:50:53.493Z,10.46
2019-03-29T07:51:53.466Z,10.48
2019-03-29T07:52:53.446Z,10.54
2019-03-29T07:53:53.435Z,10.52
2019-03-29T07:54:53.421Z,10.61
2019-03-29T07:55:53.432Z,10.62
2019-03-29T07:56:53.477Z,10.62
2019-03-29T07:57:53.387Z,10.78
2019-03-29T07:58:53.380Z,10.78
2019-03-29T07:59:53.366Z,10.83
2019-03-29T08:00:53.391Z,10.80
2019-03-29T08:01:53.361Z,10.93
2019-03-29T08:02:53.346Z,10.82
2019-03-29T08:03:53.590Z,10.87
2019-03-29T08:04:53.328Z,10.97
2019-03-29T08:05:53.335Z,10.98
2019-03-29T08:06:53.290Z,10.98
2019-03-29T08:07:53.291Z,11.13
2019-03-29T08:08:53.270Z,11.13
2019-03-29T08:09:53.996Z,11.09
2019-03-29T08:10:53.977Z,11.13
2019-03-29T08:11:53.283Z,11.03
2019-03-29T08:12:53.226Z,11.15
2019-03-29T08:13:53.214Z,11.25
2019-03-29T08:14:53.201Z,11.30
2019-03-29T08:15:53.194Z,11.22
2019-03-29T08:16:53.202Z,11.27
2019-03-29T08:17:53.186Z,11.36
2019-03-29T08:18:53.161Z,11.33
2019-03-29T08:20:13.396Z,11.45
2019-03-29T08:20:54.138Z,11.41
2019-03-29T08:21:53.151Z,11.54
2019-03-29T08:22:53.325Z,11.55
2019-03-29T08:23:53.103Z,11.59
2019-03-29T08:24:53.097Z,11.45
2019-03-29T08:25:53.080Z,11.58
2019-03-29T08:26:53.100Z,11.55
2019-03-29T08:27:53.061Z,11.62
2019-03-29T08:28:53.057Z,11.54
2019-03-29T08:29:53.042Z,11.70
2019-03-29T08:30:53.027Z,11.77
2019-03-29T08:31:55.503Z,11.71
2019-03-29T08:32:53.010Z,11.76
2019-03-29T08:33:52.989Z,11.77
2019-03-29T08:34:52.980Z,11.88
2019-03-29T08:35:52.966Z,11.79
2019-03-29T08:36:52.985Z,11.87
2019-03-29T08:37:52.947Z,11.89
2019-03-29T08:38:52.932Z,11.88
2019-03-29T08:39:56.227Z,12.00
2019-03-29T08:40:52.913Z,12.03
2019-03-29T08:41:59.981Z,12.14
2019-03-29T08:42:53.919Z,12.05
2019-03-29T08:43:52.894Z,11.95
2019-03-29T08:44:52.869Z,12.08
2019-03-29T08:45:52.858Z,12.21
2019-03-29T08:46:52.846Z,12.21
2019-03-29T08:47:52.856Z,12.18
2019-03-29T08:48:52.834Z,12.21
2019-03-29T08:49:52.811Z,12.30
2019-03-29T08:50:52.801Z,12.29
2019-03-29T08:51:52.786Z,12.36
2019-03-29T08:52:52.799Z,12.36
2019-03-29T08:53:52.777Z,12.47
2019-03-29T08:54:52.755Z,12.53
2019-03-29T08:55:52.741Z,12.53
2019-03-29T08:56:52.736Z,12.62
2019-03-29T08:57:52.746Z,12.68
2019-03-29T08:58:52.709Z,12.59
2019-03-29T08:59:52.701Z,12.55
2019-03-29T09:00:52.689Z,12.71
2019-03-29T09:01:52.678Z,12.80
2019-03-29T09:02:52.688Z,12.68
2019-03-29T09:04:04.564Z,12.80
2019-03-29T09:04:53.642Z,12.83
2019-03-29T09:05:52.627Z,12.90
2019-03-29T09:06:54.124Z,12.73
2019-03-29T09:07:52.640Z,12.81
2019-03-29T09:08:52.601Z,12.84
2019-03-29T09:09:52.581Z,12.87
2019-03-29T09:10:52.570Z,12.96
2019-03-29T09:11:52.561Z,13.02
2019-03-29T09:12:52.581Z,12.91
2019-03-29T09:13:52.590Z,13.02
2019-03-29T09:14:52.525Z,13.08
2019-03-29T09:15:52.528Z,12.99
2019-03-29T09:16:52.513Z,13.04
2019-03-29T09:17:52.516Z,13.14
2019-03-29T09:18:52.503Z,13.17
2019-03-29T09:19:52.477Z,13.17
2019-03-29T09:20:52.458Z,13.23
2019-03-29T09:21:52.459Z,13.17
2019-03-29T09:22:52.458Z,13.30
2019-03-29T09:23:52.456Z,13.36
2019-03-29T09:24:52.416Z,13.42
2019-03-29T09:25:52.402Z,13.39
2019-03-29T09:26:52.398Z,13.49
2019-03-29T09:27:52.383Z,13.39
2019-03-29T09:28:52.412Z,13.46
2019-03-29T09:29:52.361Z,13.51
2019-03-29T09:30:52.346Z,13.46
2019-03-29T09:31:52.340Z,13.64
2019-03-29T09:32:52.330Z,13.60
2019-03-29T09:33:52.350Z,13.64
2019-03-29T09:34:52.305Z,13.76
2019-03-29T09:35:52.290Z,13.76
2019-03-29T09:36:52.286Z,13.64
2019-03-29T09:37:52.274Z,13.68
2019-03-29T09:38:52.294Z,13.78
2019-03-29T09:39:52.245Z,13.82
2019-03-29T09:40:58.881Z,13.86
2019-03-29T09:41:53.233Z,13.79
2019-03-29T09:43:06.183Z,13.85
2019-03-29T09:43:54.485Z,13.88
2019-03-29T09:44:52.226Z,13.98
2019-03-29T09:45:52.183Z,14.05
2019-03-29T09:46:52.172Z,14.04
2019-03-29T09:47:52.161Z,14.03
2019-03-29T09:48:52.145Z,13.97
2019-03-29T09:49:52.158Z,14.01
2019-03-29T09:50:52.123Z,14.05
2019-03-29T09:51:52.118Z,14.12
2019-03-29T09:52:52.106Z,14.03
2019-03-29T09:53:52.098Z,14.19
2019-03-29T09:54:54.020Z,14.34
2019-03-29T09:55:53.503Z,14.36
2019-03-29T09:56:52.057Z,14.37
2019-03-29T09:57:52.057Z,14.40
2019-03-29T09:58:52.033Z,14.36
2019-03-29T09:59:52.055Z,14.30
2019-03-29T10:00:52.028Z,14.26
2019-03-29T10:01:54.049Z,14.30
2019-03-29T10:02:52.024Z,14.34
2019-03-29T10:03:51.987Z,14.28
2019-03-29T10:04:51.993Z,14.37
2019-03-29T10:05:51.982Z,14.34
2019-03-29T10:06:51.948Z,14.41
2019-03-29T10:07:51.936Z,14.48
2019-03-29T10:08:53.503Z,14.55
2019-03-29T10:09:51.966Z,14.61
2019-03-29T10:10:51.908Z,14.71
2019-03-29T10:11:51.902Z,14.58
2019-03-29T10:12:51.879Z,14.66
2019-03-29T10:13:51.881Z,14.64
2019-03-29T10:14:51.858Z,14.64
2019-03-29T10:15:51.886Z,14.69
2019-03-29T10:16:51.838Z,14.69
2019-03-29T10:17:51.831Z,14.64
2019-03-29T10:18:51.842Z,14.87
2019-03-29T10:19:51.801Z,14.92
2019-03-29T10:20:51.817Z,15.01
2019-03-29T10:21:51.796Z,14.97
2019-03-29T10:22:51.769Z,15.20
2019-03-29T10:23:51.769Z,15.05
2019-03-29T10:24:51.750Z,15.25
2019-03-29T10:25:51.767Z,15.12
2019-03-29T10:26:51.728Z,15.29
2019-03-29T10:27:51.724Z,15.27
2019-03-29T10:28:51.703Z,15.35
2019-03-29T10:29:51.690Z,15.45
2019-03-29T10:30:51.708Z,15.43
2019-03-29T10:31:51.674Z,15.38
2019-03-29T10:32:51.660Z,15.30
2019-03-29T10:33:51.646Z,15.29
2019-03-29T10:34:51.656Z,15.32
2019-03-29T10:35:52.936Z,15.29
2019-03-29T10:36:51.615Z,15.30
2019-03-29T10:37:51.601Z,15.17
2019-03-29T10:38:51.590Z,15.26
2019-03-29T10:39:51.587Z,15.30
2019-03-29T10:40:51.608Z,15.19
2019-03-29T10:41:51.558Z,15.29
2019-03-29T10:42:57.753Z,15.36
2019-03-29T10:43:52.550Z,15.40
2019-03-29T10:44:51.527Z,15.35
2019-03-29T10:45:51.544Z,15.51
2019-03-29T10:46:51.508Z,15.59
2019-03-29T10:47:51.494Z,15.58
2019-03-29T10:48:51.554Z,15.56
2019-03-29T10:49:51.474Z,15.35
2019-03-29T10:50:51.483Z,15.51
2019-03-29T10:51:51.527Z,15.50
2019-03-29T10:52:51.439Z,15.44
2019-03-29T10:53:51.436Z,15.48
2019-03-29T10:54:51.428Z,15.58
2019-03-29T10:55:51.404Z,15.56
2019-03-29T10:56:51.414Z,15.62
2019-03-29T10:57:51.380Z,15.43
2019-03-29T10:58:51.373Z,15.33
2019-03-29T10:59:51.355Z,15.54
2019-03-29T11:00:51.352Z,15.59
2019-03-29T11:01:51.361Z,15.72
2019-03-29T11:02:51.328Z,15.80
2019-03-29T11:03:51.331Z,15.85
2019-03-29T11:04:51.308Z,15.84
2019-03-29T11:05:51.301Z,15.83
2019-03-29T11:06:51.314Z,15.90
2019-03-29T11:07:51.280Z,16.00
2019-03-29T11:08:51.260Z,16.16
2019-03-29T11:09:51.254Z,16.21
2019-03-29T11:10:51.246Z,16.21
2019-03-29T11:11:51.247Z,16.24
2019-03-29T11:12:51.227Z,16.25
2019-03-29T11:13:51.204Z,16.29
2019-03-29T11:14:51.194Z,16.33
2019-03-29T11:15:51.179Z,16.26
2019-03-29T11:16:51.213Z,16.22
2019-03-29T11:17:51.166Z,16.17
2019-03-29T11:18:51.153Z,16.32
2019-03-29T11:19:51.134Z,16.25
2019-03-29T11:20:51.123Z,16.32
2019-03-29T11:21:51.117Z,16.32
2019-03-29T11:22:51.126Z,16.47
2019-03-29T11:23:51.125Z,16.61
2019-03-29T11:24:51.089Z,16.64
2019-03-29T11:25:51.072Z,16.76
2019-03-29T11:26:51.092Z,16.65
2019-03-29T11:27:51.050Z,16.58
2019-03-29T11:28:51.036Z,16.44
2019-03-29T11:29:51.029Z,16.64
2019-03-29T11:30:51.012Z,16.58
2019-03-29T11:31:51.043Z,16.70
2019-03-29T11:32:51.130Z,16.74
2019-03-29T11:33:51.001Z,16.83
2019-03-29T11:34:50.975Z,16.87
2019-03-29T11:35:50.982Z,16.99
2019-03-29T11:36:52.661Z,17.07
2019-03-29T11:37:50.969Z,17.16
2019-03-29T11:38:50.923Z,17.25
2019-03-29T11:39:50.912Z,17.25
2019-03-29T11:40:50.906Z,17.16
2019-03-29T11:41:50.904Z,16.98
2019-03-29T11:42:50.915Z,17.20
2019-03-29T11:43:50.876Z,17.12
2019-03-29T11:44:50.869Z,17.20
2019-03-29T11:45:50.850Z,17.25
2019-03-29T11:46:50.849Z,17.45
2019-03-29T11:47:50.855Z,17.35
2019-03-29T11:48:50.817Z,17.46
2019-03-29T11:49:52.931Z,17.59
2019-03-29T11:50:50.793Z,17.50
2019-03-29T11:51:50.783Z,17.68
2019-03-29T11:52:50.809Z,17.47
2019-03-29T11:53:51.264Z,17.49
2019-03-29T11:54:50.749Z,17.45
2019-03-29T11:55:50.746Z,17.45
2019-03-29T11:56:50.727Z,17.46
2019-03-29T11:57:50.716Z,17.20
2019-03-29T11:58:50.742Z,17.38
2019-03-29T11:59:50.715Z,17.34
2019-03-29T12:00:50.688Z,17.22
2019-03-29T12:01:50.681Z,17.32
2019-03-29T12:02:50.662Z,17.39
2019-03-29T12:03:50.689Z,17.47
2019-03-29T12:04:50.660Z,17.52
2019-03-29T12:05:50.632Z,17.56
2019-03-29T12:06:50.621Z,17.68
2019-03-29T12:07:50.621Z,17.72
2019-03-29T12:08:50.621Z,17.71
2019-03-29T12:09:50.655Z,17.76
2019-03-29T12:10:50.578Z,17.73
2019-03-29T12:11:50.563Z,17.47
2019-03-29T12:12:50.551Z,17.65
2019-03-29T12:13:50.578Z,17.66
2019-03-29T12:14:50.535Z,17.79
2019-03-29T12:15:50.526Z,17.81
2019-03-29T12:16:50.507Z,17.91
2019-03-29T12:17:50.520Z,18.02
2019-03-29T12:18:50.505Z,18.13
2019-03-29T12:19:50.489Z,18.21
2019-03-29T12:20:50.464Z,18.33
2019-03-29T12:21:50.449Z,18.41
2019-03-29T12:22:50.448Z,18.43
2019-03-29T12:23:50.469Z,18.42
2019-03-29T12:24:50.417Z,18.46
2019-03-29T12:25:50.412Z,18.42
2019-03-29T12:26:50.395Z,18.30
2019-03-29T12:27:50.411Z,18.38
2019-03-29T12:28:50.373Z,18.36
2019-03-29T12:29:50.403Z,18.39
2019-03-29T12:30:50.350Z,18.51
2019-03-29T12:31:50.338Z,18.48
2019-03-29T12:32:50.332Z,18.61
2019-03-29T12:33:50.336Z,18.57
2019-03-29T12:34:50.360Z,18.57
2019-03-29T12:35:50.300Z,18.71
2019-03-29T12:36:50.288Z,18.75
2019-03-29T12:37:50.277Z,18.66
2019-03-29T12:38:50.261Z,18.76
2019-03-29T12:39:50.301Z,18.96
2019-03-29T12:40:50.249Z,19.12
2019-03-29T12:41:50.237Z,19.05
2019-03-29T12:42:50.222Z,19.13
2019-03-29T12:43:55.796Z,19.26
2019-03-29T12:44:51.221Z,19.31
2019-03-29T12:45:50.183Z,19.34
2019-03-29T12:46:50.180Z,19.49
2019-03-29T12:47:50.172Z,19.35
2019-03-29T12:48:50.622Z,19.35
2019-03-29T12:49:50.171Z,19.41
2019-03-29T12:50:50.152Z,19.44
2019-03-29T12:51:50.122Z,19.47
2019-03-29T12:52:50.110Z,19.45
2019-03-29T12:53:50.107Z,19.34
2019-03-29T12:54:50.126Z,19.37
2019-03-29T12:55:50.074Z,19.16
2019-03-29T12:56:50.067Z,19.07
2019-03-29T12:57:50.059Z,19.12
2019-03-29T12:58:50.038Z,19.04
2019-03-29T12:59:50.070Z,18.96
2019-03-29T13:00:50.040Z,18.96
2019-03-29T13:01:50.017Z,18.89